Time;durP1;ratioP1;P1;durP2;ratioP2;P2;SDS_P1;SDS_P2;PMS_P1;PMS_P2;Temp;Humidity;BMP_temperature;BMP_pressure;BME280_temperature;BME280_humidity;BME280_pressure;Samples;Min_cycle;Max_cycle;Signal;HPM_P1;HPM_P2
2022/03/06 00:00:00;;;;;;;;;;;5.20;78.20;;;;;;5081410;28;20011;-66
2022/03/06 00:02:26;;;;;;;;;;;5.30;78.30;;;;;;5081870;28;19965;-65
2022/03/06 00:04:51;;;;;;;;;;;5.20;78.30;;;;;;5081060;28;20329;-65
2022/03/06 00:07:17;;;;;;;;;;;5.10;78.60;;;;;;5081548;28;19912;-63
2022/03/06 00:09:42;;;;;;;;;;;5.10;78.50;;;;;;5099823;28;19964;-67
2022/03/06 00:12:08;;;;;;;;;;;5.20;78.50;;;;;;5082043;28;20350;-63
2022/03/06 00:14:33;;;;;;;;;;;5.10;78.30;;;;;;5100443;28;19908;-63
2022/03/06 00:16:59;;;;;;;;;;;5.10;78.50;;;;;;5081428;28;19915;-63
2022/03/06 00:19:24;;;;;;;;;;;5.20;78.20;;;;;;5100715;28;19947;-63
2022/03/06 00:21:50;;;;;;;;;;;5.10;78.30;;;;;;5099360;28;20385;-64
2022/03/06 00:24:15;;;;;;;;;;;5.00;78.40;;;;;;5099501;28;20381;-63
2022/03/06 00:26:41;;;;;;;;;;;5.00;78.40;;;;;;5081260;28;19958;-73
2022/03/06 00:29:07;;;;;;;;;;;4.90;78.60;;;;;;5099497;28;20368;-62
2022/03/06 00:31:32;;;;;;;;;;;4.90;78.60;;;;;;5081561;28;19912;-64
2022/03/06 00:33:58;;;;;;;;;;;4.90;78.50;;;;;;5080453;28;19909;-62
2022/03/06 00:36:23;;;;;;;;;;;4.80;78.30;;;;;;5081506;28;19940;-64
2022/03/06 00:38:49;;;;;;;;;;;4.70;78.80;;;;;;5099341;28;19912;-67
2022/03/06 00:41:15;;;;;;;;;;;4.70;78.80;;;;;;5099419;28;19915;-64
2022/03/06 00:43:41;;;;;;;;;;;4.70;79.30;;;;;;5095440;28;20288;-63
2022/03/06 00:46:06;;;;;;;;;;;4.70;78.60;;;;;;5095652;28;20305;-62
2022/03/06 00:48:32;;;;;;;;;;;4.70;78.80;;;;;;5078451;28;19912;-63
2022/03/06 00:50:57;;;;;;;;;;;4.60;79.10;;;;;;5095823;28;19919;-63
2022/03/06 00:53:23;;;;;;;;;;;4.60;79.10;;;;;;5096333;28;20411;-64
2022/03/06 00:55:49;;;;;;;;;;;4.70;78.80;;;;;;5095799;28;20430;-64
2022/03/06 00:58:14;;;;;;;;;;;4.70;78.80;;;;;;5078658;28;19908;-63
2022/03/06 01:00:41;;;;;;;;;;;4.70;79.00;;;;;;5078756;28;19994;-63
2022/03/06 01:03:11;;;;;;;;;;;4.60;78.90;;;;;;5096844;28;19912;-65
2022/03/06 01:05:36;;;;;;;;;;;4.60;78.60;;;;;;5096827;28;19915;-65
2022/03/06 01:08:03;;;;;;;;;;;4.60;78.50;;;;;;5095871;28;20003;-63
2022/03/06 01:10:30;;;;;;;;;;;4.60;78.20;;;;;;5077689;28;19919;-66
2022/03/06 01:12:55;;;;;;;;;;;4.60;77.80;;;;;;5077233;28;19908;-65
2022/03/06 01:15:21;;;;;;;;;;;4.60;77.90;;;;;;5095615;28;19968;-65
2022/03/06 01:17:47;;;;;;;;;;;4.70;77.90;;;;;;5094787;28;19912;-64
2022/03/06 01:20:12;;;;;;;;;;;4.60;78.20;;;;;;5095564;28;19914;-64
2022/03/06 01:22:38;;;;;;;;;;;4.70;78.30;;;;;;5095686;28;20054;-63
2022/03/06 01:25:05;;;;;;;;;;;4.70;78.20;;;;;;5094916;28;20339;-63
2022/03/06 01:27:31;;;;;;;;;;;4.70;78.20;;;;;;5095090;28;20470;-63
2022/03/06 01:29:56;;;;;;;;;;;4.60;78.20;;;;;;5094569;28;20007;-63
2022/03/06 01:32:22;;;;;;;;;;;4.60;78.70;;;;;;5077108;28;19912;-63
2022/03/06 01:34:47;;;;;;;;;;;4.60;78.50;;;;;;5094836;28;19912;-63
2022/03/06 01:37:13;;;;;;;;;;;4.60;78.40;;;;;;5077171;28;20272;-63
2022/03/06 01:39:38;;;;;;;;;;;4.70;78.30;;;;;;5077236;28;19914;-63
2022/03/06 01:42:05;;;;;;;;;;;4.70;78.20;;;;;;5096531;28;19908;-64
2022/03/06 01:44:30;;;;;;;;;;;4.80;78.20;;;;;;5096188;28;20368;-62
2022/03/06 01:46:56;;;;;;;;;;;4.80;78.10;;;;;;5094339;28;19908;-63
2022/03/06 01:49:35;;;;;;;;;;;4.80;78.30;;;;;;5061575;28;19912;-66
2022/03/06 01:52:04;;;;;;;;;;;4.80;78.70;;;;;;5075787;28;19919;-64
2022/03/06 01:54:29;;;;;;;;;;;4.70;79.00;;;;;;5074825;28;19920;-63
2022/03/06 01:56:55;;;;;;;;;;;4.70;78.80;;;;;;5094054;28;19908;-72
2022/03/06 01:59:22;;;;;;;;;;;4.70;78.90;;;;;;5094845;28;20357;-63
2022/03/06 02:01:48;;;;;;;;;;;4.70;79.00;;;;;;5094052;28;19908;-65
2022/03/06 02:04:14;;;;;;;;;;;4.80;79.10;;;;;;5094803;28;20011;-63
2022/03/06 02:06:39;;;;;;;;;;;4.90;78.90;;;;;;5095430;28;20368;-63
2022/03/06 02:09:05;;;;;;;;;;;4.80;79.10;;;;;;5076019;28;19958;-64
2022/03/06 02:11:31;;;;;;;;;;;4.80;79.30;;;;;;5094650;28;19912;-64
2022/03/06 02:13:56;;;;;;;;;;;4.90;79.60;;;;;;5075903;28;20390;-64
2022/03/06 02:16:22;;;;;;;;;;;4.80;79.40;;;;;;5094150;28;19934;-63
2022/03/06 02:18:48;;;;;;;;;;;4.80;79.60;;;;;;5093906;28;19943;-72
2022/03/06 02:21:14;;;;;;;;;;;4.80;79.30;;;;;;5076078;28;19943;-63
2022/03/06 02:23:40;;;;;;;;;;;4.80;79.30;;;;;;5094081;28;19920;-63
2022/03/06 02:26:06;;;;;;;;;;;4.80;79.60;;;;;;5093554;28;19918;-64
2022/03/06 02:28:32;;;;;;;;;;;4.70;79.70;;;;;;5075685;28;19912;-64
2022/03/06 02:30:57;;;;;;;;;;;4.80;80.20;;;;;;5093365;28;19912;-63
2022/03/06 02:33:23;;;;;;;;;;;4.60;80.50;;;;;;5093749;28;19915;-63
2022/03/06 02:35:49;;;;;;;;;;;4.60;80.80;;;;;;5075815;28;19908;-72
2022/03/06 02:38:15;;;;;;;;;;;4.50;81.20;;;;;;5075749;28;19908;-66
2022/03/06 02:40:43;;;;;;;;;;;4.70;81.00;;;;;;5094188;28;19915;-64
2022/03/06 02:43:09;;;;;;;;;;;4.60;80.80;;;;;;5075178;28;19997;-63
2022/03/06 02:45:35;;;;;;;;;;;4.60;80.60;;;;;;5094076;28;19915;-63
2022/03/06 02:48:01;;;;;;;;;;;4.60;81.40;;;;;;5093336;28;19908;-63
2022/03/06 02:50:28;;;;;;;;;;;4.40;81.50;;;;;;5093877;28;19934;-66
2022/03/06 02:52:54;;;;;;;;;;;4.50;81.80;;;;;;5093258;28;20013;-63
2022/03/06 02:55:20;;;;;;;;;;;4.50;81.50;;;;;;5093845;28;19912;-64
2022/03/06 02:57:46;;;;;;;;;;;4.50;81.60;;;;;;5093477;28;19908;-63
2022/03/06 03:00:13;;;;;;;;;;;4.50;81.70;;;;;;5074925;28;19908;-63
2022/03/06 03:02:39;;;;;;;;;;;4.40;81.70;;;;;;5093737;28;19912;-64
2022/03/06 03:05:05;;;;;;;;;;;4.40;81.80;;;;;;5092665;28;20332;-65
2022/03/06 03:07:31;;;;;;;;;;;4.40;81.70;;;;;;5093468;28;19908;-64
2022/03/06 03:09:57;;;;;;;;;;;4.40;81.70;;;;;;5074754;28;19916;-65
2022/03/06 03:12:22;;;;;;;;;;;4.40;82.00;;;;;;5093800;28;19912;-64
2022/03/06 03:14:48;;;;;;;;;;;4.40;82.30;;;;;;5093609;28;19908;-63
2022/03/06 03:17:13;;;;;;;;;;;4.30;82.20;;;;;;5074686;28;19930;-63
2022/03/06 03:19:39;;;;;;;;;;;4.30;82.50;;;;;;5093647;28;19995;-63
2022/03/06 03:22:05;;;;;;;;;;;4.30;82.30;;;;;;5074771;28;19954;-64
2022/03/06 03:24:31;;;;;;;;;;;4.10;82.70;;;;;;5075152;28;20408;-62
2022/03/06 03:26:56;;;;;;;;;;;4.10;82.70;;;;;;5093002;28;19958;-63
2022/03/06 03:29:22;;;;;;;;;;;4.00;82.90;;;;;;5075408;28;20004;-64
2022/03/06 03:31:48;;;;;;;;;;;4.10;83.00;;;;;;5075760;28;19955;-64
2022/03/06 03:34:13;;;;;;;;;;;4.00;83.20;;;;;;5094234;28;20358;-65
2022/03/06 03:36:39;;;;;;;;;;;4.00;83.30;;;;;;5094118;28;19915;-63
2022/03/06 03:39:05;;;;;;;;;;;4.00;83.30;;;;;;5074926;28;19947;-62
2022/03/06 03:41:31;;;;;;;;;;;4.00;83.10;;;;;;5075643;28;19915;-64
2022/03/06 03:43:56;;;;;;;;;;;4.00;83.10;;;;;;5075357;28;19919;-63
2022/03/06 03:46:22;;;;;;;;;;;3.90;83.30;;;;;;5094465;28;20408;-63
2022/03/06 03:48:47;;;;;;;;;;;3.90;83.20;;;;;;5095203;28;20009;-63
2022/03/06 03:51:13;;;;;;;;;;;3.80;83.30;;;;;;5093771;28;20076;-62
2022/03/06 03:53:38;;;;;;;;;;;3.80;83.30;;;;;;5093182;28;19912;-64
2022/03/06 03:56:05;;;;;;;;;;;3.80;83.20;;;;;;5092456;28;19912;-64
2022/03/06 03:58:30;;;;;;;;;;;3.70;83.40;;;;;;5075049;28;20387;-63
2022/03/06 04:00:57;;;;;;;;;;;3.70;83.70;;;;;;5093280;28;19951;-64
2022/03/06 04:03:23;;;;;;;;;;;3.70;83.60;;;;;;5092933;28;19953;-64
2022/03/06 04:05:48;;;;;;;;;;;3.70;83.40;;;;;;5092904;28;19908;-63
2022/03/06 04:08:14;;;;;;;;;;;3.80;83.10;;;;;;5092165;28;20090;-62
2022/03/06 04:10:40;;;;;;;;;;;3.70;83.80;;;;;;5075397;28;19912;-62
2022/03/06 04:13:05;;;;;;;;;;;3.60;84.10;;;;;;5074697;28;19908;-63
2022/03/06 04:15:31;;;;;;;;;;;3.40;84.60;;;;;;5093659;28;19908;-65
2022/03/06 04:17:57;;;;;;;;;;;3.40;84.90;;;;;;5094853;28;20391;-63
2022/03/06 04:20:23;;;;;;;;;;;3.30;85.20;;;;;;5097660;28;20012;-69
2022/03/06 04:22:48;;;;;;;;;;;3.30;85.60;;;;;;5097630;28;19912;-69
2022/03/06 04:25:14;;;;;;;;;;;3.30;85.80;;;;;;5097512;28;19924;-64
2022/03/06 04:27:39;;;;;;;;;;;3.40;85.60;;;;;;5079977;28;19912;-70
2022/03/06 04:30:05;;;;;;;;;;;3.40;85.80;;;;;;5096908;28;20365;-66
2022/03/06 04:32:30;;;;;;;;;;;3.40;85.80;;;;;;5097849;28;19967;-63
2022/03/06 04:34:56;;;;;;;;;;;3.40;85.50;;;;;;5078434;28;19938;-73
2022/03/06 04:37:21;;;;;;;;;;;3.40;85.60;;;;;;5097948;28;19962;-64
2022/03/06 04:39:47;;;;;;;;;;;3.30;86.20;;;;;;5078905;28;20272;-65
2022/03/06 04:42:12;;;;;;;;;;;3.30;86.40;;;;;;5078310;28;19908;-64
2022/03/06 04:44:39;;;;;;;;;;;3.30;86.40;;;;;;5078797;28;19915;-64
2022/03/06 04:47:04;;;;;;;;;;;3.10;86.70;;;;;;5096473;28;19908;-65
2022/03/06 04:49:30;;;;;;;;;;;3.10;86.60;;;;;;5078981;28;19912;-64
2022/03/06 04:51:55;;;;;;;;;;;3.10;86.90;;;;;;5097460;28;19951;-64
2022/03/06 04:54:21;;;;;;;;;;;3.20;86.80;;;;;;5096507;28;20349;-70
2022/03/06 04:56:47;;;;;;;;;;;3.10;86.70;;;;;;5097010;28;19912;-64
2022/03/06 04:59:12;;;;;;;;;;;3.10;87.00;;;;;;5096118;28;19961;-63
2022/03/06 05:01:38;;;;;;;;;;;3.10;86.70;;;;;;5097160;28;19915;-64
2022/03/06 05:04:03;;;;;;;;;;;3.10;87.00;;;;;;5096523;28;20007;-68
2022/03/06 05:06:29;;;;;;;;;;;3.10;86.60;;;;;;5096445;28;19908;-64
2022/03/06 05:08:54;;;;;;;;;;;3.10;87.10;;;;;;5096861;28;19912;-68
2022/03/06 05:11:20;;;;;;;;;;;3.10;86.50;;;;;;5078225;28;19912;-65
2022/03/06 05:13:46;;;;;;;;;;;3.10;86.60;;;;;;5078980;28;19912;-63
2022/03/06 05:16:11;;;;;;;;;;;3.10;86.30;;;;;;5096341;28;19908;-63
2022/03/06 05:18:37;;;;;;;;;;;3.10;85.80;;;;;;5096387;28;19912;-64
2022/03/06 05:21:03;;;;;;;;;;;3.20;85.40;;;;;;5096040;28;19908;-63
2022/03/06 05:23:28;;;;;;;;;;;3.10;85.70;;;;;;5077898;28;20387;-63
2022/03/06 05:25:54;;;;;;;;;;;3.00;85.80;;;;;;5095880;28;19924;-66
2022/03/06 05:28:20;;;;;;;;;;;3.00;85.80;;;;;;5095254;28;19916;-70
2022/03/06 05:30:46;;;;;;;;;;;3.10;85.40;;;;;;5095875;28;19912;-64
2022/03/06 05:33:12;;;;;;;;;;;3.00;85.40;;;;;;5077622;28;19909;-65
2022/03/06 05:35:37;;;;;;;;;;;2.90;85.60;;;;;;5096171;28;20011;-64
2022/03/06 05:38:03;;;;;;;;;;;3.00;85.80;;;;;;5095449;28;19930;-63
2022/03/06 05:40:28;;;;;;;;;;;3.00;85.30;;;;;;5095478;28;19908;-63
2022/03/06 05:42:54;;;;;;;;;;;3.00;85.50;;;;;;5095193;28;19915;-65
2022/03/06 05:45:19;;;;;;;;;;;3.00;85.60;;;;;;5094703;28;20594;-64
2022/03/06 05:47:45;;;;;;;;;;;3.00;85.90;;;;;;5094754;28;20277;-63
2022/03/06 05:50:10;;;;;;;;;;;3.00;85.80;;;;;;5076435;28;19924;-63
2022/03/06 05:52:36;;;;;;;;;;;3.00;85.80;;;;;;5095272;28;19919;-64
2022/03/06 05:55:03;;;;;;;;;;;3.00;86.20;;;;;;5094483;28;19920;-64
2022/03/06 05:57:28;;;;;;;;;;;3.00;86.90;;;;;;5095346;28;19908;-64
2022/03/06 05:59:54;;;;;;;;;;;2.90;87.00;;;;;;5094730;28;20358;-64
2022/03/06 06:02:20;;;;;;;;;;;2.90;87.20;;;;;;5094429;28;20319;-71
2022/03/06 06:04:45;;;;;;;;;;;3.00;87.00;;;;;;5095007;28;19915;-65
2022/03/06 06:07:11;;;;;;;;;;;3.00;87.00;;;;;;5076473;28;19996;-65
2022/03/06 06:09:36;;;;;;;;;;;3.00;87.30;;;;;;5094575;28;20273;-63
2022/03/06 06:12:02;;;;;;;;;;;3.00;87.40;;;;;;5094314;28;20280;-72
2022/03/06 06:14:28;;;;;;;;;;;3.00;87.60;;;;;;5093725;28;19930;-63
2022/03/06 06:16:53;;;;;;;;;;;3.00;87.90;;;;;;5076645;28;19912;-63
2022/03/06 06:19:19;;;;;;;;;;;3.00;88.20;;;;;;5094445;28;19908;-64
2022/03/06 06:21:44;;;;;;;;;;;3.00;88.20;;;;;;5094683;28;19962;-62
2022/03/06 06:24:11;;;;;;;;;;;3.00;88.00;;;;;;5074638;28;20007;-64
2022/03/06 06:26:36;;;;;;;;;;;3.10;88.20;;;;;;5077336;28;19919;-67
2022/03/06 06:29:02;;;;;;;;;;;3.20;88.20;;;;;;5094655;28;19912;-63
2022/03/06 06:31:28;;;;;;;;;;;3.20;88.20;;;;;;5076097;28;19912;-62
2022/03/06 06:33:54;;;;;;;;;;;3.30;88.40;;;;;;5094290;28;20269;-65
2022/03/06 06:36:20;;;;;;;;;;;3.20;88.50;;;;;;5094173;28;19908;-65
2022/03/06 06:38:46;;;;;;;;;;;3.40;88.30;;;;;;5094067;28;19919;-64
2022/03/06 06:41:12;;;;;;;;;;;3.40;88.40;;;;;;5092505;28;19908;-64
2022/03/06 06:43:37;;;;;;;;;;;3.30;88.80;;;;;;5077758;28;19919;-63
2022/03/06 06:46:03;;;;;;;;;;;3.30;88.90;;;;;;5073475;28;19915;-62
2022/03/06 06:48:28;;;;;;;;;;;3.30;88.70;;;;;;5056936;28;19913;-64
2022/03/06 06:50:54;;;;;;;;;;;3.40;88.90;;;;;;5073492;28;19912;-63
2022/03/06 06:53:19;;;;;;;;;;;3.50;88.90;;;;;;5080270;28;19912;-63
2022/03/06 06:55:45;;;;;;;;;;;3.50;88.60;;;;;;5080266;28;19913;-62
2022/03/06 06:58:10;;;;;;;;;;;3.60;88.60;;;;;;5087110;28;19912;-62
2022/03/06 07:00:36;;;;;;;;;;;5.10;97.80;;;;;;5093716;28;19958;-64
2022/03/06 07:03:01;;;;;;;;;;;4.90;93.00;;;;;;5093123;28;19912;-65
2022/03/06 07:05:27;;;;;;;;;;;4.80;91.00;;;;;;5093542;28;19912;-64
2022/03/06 07:07:55;;;;;;;;;;;4.50;90.70;;;;;;5074951;28;19908;-64
2022/03/06 07:10:21;;;;;;;;;;;4.40;90.90;;;;;;5093401;28;19920;-64
2022/03/06 07:12:48;;;;;;;;;;;4.40;90.70;;;;;;5093880;28;20269;-63
2022/03/06 07:15:14;;;;;;;;;;;4.40;90.80;;;;;;5092773;28;19919;-65
2022/03/06 07:17:40;;;;;;;;;;;4.40;90.70;;;;;;5077359;28;20270;-66
2022/03/06 07:20:06;;;;;;;;;;;4.30;90.90;;;;;;5074363;28;19916;-73
2022/03/06 07:22:32;;;;;;;;;;;4.40;90.80;;;;;;5093207;28;20301;-64
2022/03/06 07:24:57;;;;;;;;;;;4.40;90.70;;;;;;5093492;28;19943;-63
2022/03/06 07:27:23;;;;;;;;;;;4.70;90.30;;;;;;5075307;28;19947;-63
2022/03/06 07:29:48;;;;;;;;;;;4.70;90.10;;;;;;5093557;28;19919;-64
2022/03/06 07:32:14;;;;;;;;;;;4.90;90.00;;;;;;5093003;28;19912;-63
2022/03/06 07:34:40;;;;;;;;;;;5.20;89.10;;;;;;5093152;28;19909;-65
2022/03/06 07:37:06;;;;;;;;;;;5.30;88.30;;;;;;5092729;28;19957;-63
2022/03/06 07:39:31;;;;;;;;;;;5.70;87.40;;;;;;5092563;28;19916;-63
2022/03/06 07:41:57;;;;;;;;;;;5.90;86.00;;;;;;5075059;28;19913;-66
2022/03/06 07:44:22;;;;;;;;;;;6.40;84.60;;;;;;5074719;28;19908;-64
2022/03/06 07:46:48;;;;;;;;;;;6.80;82.40;;;;;;5093220;28;19960;-63
2022/03/06 07:49:13;;;;;;;;;;;7.40;80.10;;;;;;5093304;28;19926;-65
2022/03/06 07:51:39;;;;;;;;;;;7.80;78.20;;;;;;5078242;28;19948;-66
2022/03/06 07:54:07;;;;;;;;;;;8.00;76.50;;;;;;5098873;28;19961;-63
2022/03/06 07:56:33;;;;;;;;;;;8.20;75.10;;;;;;5079445;28;19912;-64
2022/03/06 07:58:58;;;;;;;;;;;8.60;74.40;;;;;;5079215;28;19957;-63
2022/03/06 08:01:24;;;;;;;;;;;8.80;73.20;;;;;;5078819;28;20003;-65
2022/03/06 08:03:49;;;;;;;;;;;9.00;72.20;;;;;;5097647;28;20003;-65
2022/03/06 08:06:15;;;;;;;;;;;9.20;72.50;;;;;;5096705;28;19915;-67
2022/03/06 08:08:41;;;;;;;;;;;9.50;71.50;;;;;;5096690;28;20023;-62
2022/03/06 08:11:06;;;;;;;;;;;9.50;70.20;;;;;;5079170;28;19912;-64
2022/03/06 08:13:32;;;;;;;;;;;9.70;69.50;;;;;;5095619;28;19912;-68
2022/03/06 08:15:57;;;;;;;;;;;10.00;69.00;;;;;;5097204;28;20049;-63
2022/03/06 08:18:23;;;;;;;;;;;10.10;68.50;;;;;;5076207;28;19932;-66
2022/03/06 08:20:48;;;;;;;;;;;10.20;67.30;;;;;;5089427;28;20380;-64
2022/03/06 08:23:14;;;;;;;;;;;10.30;67.20;;;;;;5085627;28;19912;-64
2022/03/06 08:25:39;;;;;;;;;;;10.40;67.20;;;;;;5088621;28;19913;-64
2022/03/06 08:28:05;;;;;;;;;;;10.80;66.90;;;;;;5092325;28;19919;-65
2022/03/06 08:30:30;;;;;;;;;;;11.00;66.30;;;;;;5096421;28;19916;-66
2022/03/06 08:32:56;;;;;;;;;;;11.10;65.50;;;;;;5095220;28;19908;-65
2022/03/06 08:35:21;;;;;;;;;;;11.30;65.70;;;;;;5080540;28;20290;-65
2022/03/06 08:37:47;;;;;;;;;;;11.60;68.80;;;;;;5078818;28;19919;-67
2022/03/06 08:40:12;;;;;;;;;;;11.70;65.10;;;;;;5082846;28;19945;-66
2022/03/06 08:42:38;;;;;;;;;;;11.50;64.90;;;;;;5096731;28;20277;-63
2022/03/06 08:45:04;;;;;;;;;;;11.60;64.20;;;;;;5092803;28;19913;-64
2022/03/06 08:47:29;;;;;;;;;;;11.70;64.10;;;;;;5064453;28;20372;-64
2022/03/06 08:49:55;;;;;;;;;;;11.90;64.00;;;;;;5085214;28;19916;-65
2022/03/06 08:52:21;;;;;;;;;;;11.90;63.50;;;;;;5075486;28;20261;-65
2022/03/06 08:54:46;;;;;;;;;;;11.70;63.50;;;;;;5087297;28;20003;-66
2022/03/06 08:57:12;;;;;;;;;;;11.20;63.80;;;;;;5076559;28;19909;-75
2022/03/06 08:59:37;;;;;;;;;;;11.40;64.40;;;;;;5091094;28;19917;-64
2022/03/06 09:02:03;;;;;;;;;;;11.00;64.30;;;;;;5093819;28;19970;-67
2022/03/06 09:04:31;;;;;;;;;;;11.70;64.20;;;;;;5093658;28;19908;-64
2022/03/06 09:06:57;;;;;;;;;;;11.40;64.40;;;;;;5095750;28;19908;-63
2022/03/06 09:09:22;;;;;;;;;;;11.70;64.50;;;;;;5089159;28;19965;-64
2022/03/06 09:11:48;;;;;;;;;;;11.90;63.80;;;;;;5094805;28;20327;-63
2022/03/06 09:14:13;;;;;;;;;;;12.00;62.60;;;;;;5076646;28;20003;-73
2022/03/06 09:16:39;;;;;;;;;;;12.70;61.70;;;;;;5095602;28;19908;-62
2022/03/06 09:19:05;;;;;;;;;;;;;;;;;;5093677;28;20299;-63
2022/03/06 09:21:30;;;;;;;;;;;13.20;60.20;;;;;;5075688;28;19953;-64
2022/03/06 09:23:56;;;;;;;;;;;12.70;60.00;;;;;;5077321;28;19920;-63
2022/03/06 09:26:21;;;;;;;;;;;12.80;60.30;;;;;;5088757;28;19916;-63
2022/03/06 09:28:47;;;;;;;;;;;13.40;59.50;;;;;;5065527;28;19924;-65
2022/03/06 09:31:12;;;;;;;;;;;13.50;58.10;;;;;;5095432;28;19912;-63
2022/03/06 09:33:38;;;;;;;;;;;12.30;58.90;;;;;;5076260;28;20377;-63
2022/03/06 09:36:03;;;;;;;;;;;12.40;60.00;;;;;;5075659;28;19922;-67
2022/03/06 09:38:29;;;;;;;;;;;13.10;59.00;;;;;;5083101;28;19959;-64
2022/03/06 09:40:55;;;;;;;;;;;13.20;57.70;;;;;;5095071;28;19961;-64
2022/03/06 09:43:20;;;;;;;;;;;12.20;57.50;;;;;;5077115;28;20387;-64
2022/03/06 09:45:47;;;;;;;;;;;11.60;59.30;;;;;;5063649;28;20003;-65
2022/03/06 09:48:14;;;;;;;;;;;13.10;58.60;;;;;;5085331;28;19908;-65
2022/03/06 09:50:40;;;;;;;;;;;13.80;57.00;;;;;;5081783;28;19912;-64
2022/03/06 09:53:06;;;;;;;;;;;14.30;55.90;;;;;;5071709;28;19912;-63
2022/03/06 09:55:32;;;;;;;;;;;13.90;55.40;;;;;;5072308;28;19955;-63
2022/03/06 09:57:58;;;;;;;;;;;13.50;55.40;;;;;;5080111;28;19975;-65
2022/03/06 10:00:23;;;;;;;;;;;13.00;56.60;;;;;;5063970;28;19914;-64
2022/03/06 10:02:52;;;;;;;;;;;13.60;56.30;;;;;;5084478;28;19991;-63
2022/03/06 10:05:31;;;;;;;;;;;14.20;56.60;;;;;;5080037;28;19919;-65
2022/03/06 10:08:23;;;;;;;;;;;13.20;56.20;;;;;;5080230;28;19912;-64
2022/03/06 10:10:51;;;;;;;;;;;13.90;56.30;;;;;;5082112;28;19981;-65
2022/03/06 10:13:37;;;;;;;;;;;14.40;52.80;;;;;;5061968;28;19912;-70
2022/03/06 10:16:19;;;;;;;;;;;14.70;53.80;;;;;;5077021;28;19916;-64
2022/03/06 10:18:45;;;;;;;;;;;14.80;57.30;;;;;;5044399;28;19916;-64
2022/03/06 10:21:12;;;;;;;;;;;15.90;57.20;;;;;;5081809;28;20015;-65
2022/03/06 10:23:38;;;;;;;;;;;16.90;66.40;;;;;;5079798;28;19920;-65
2022/03/06 10:26:05;;;;;;;;;;;16.10;52.60;;;;;;5065882;28;19931;-64
2022/03/06 10:28:41;;;;;;;;;;;15.30;52.50;;;;;;5079581;28;19923;-64
2022/03/06 10:31:07;;;;;;;;;;;14.60;52.30;;;;;;5076140;28;19939;-64
2022/03/06 10:33:32;;;;;;;;;;;14.00;52.50;;;;;;5078043;28;19923;-70
2022/03/06 10:35:58;;;;;;;;;;;13.30;51.60;;;;;;5083516;28;19912;-68
2022/03/06 10:38:27;;;;;;;;;;;11.50;52.60;;;;;;5083620;28;19930;-72
2022/03/06 10:40:56;;;;;;;;;;;11.50;53.80;;;;;;5098662;28;19923;-69
2022/03/06 10:43:23;;;;;;;;;;;11.30;53.60;;;;;;5048896;28;19963;-65
2022/03/06 10:45:50;;;;;;;;;;;11.60;53.10;;;;;;5030277;28;19913;-65
2022/03/06 10:48:16;;;;;;;;;;;11.90;52.70;;;;;;5042315;28;19928;-65
2022/03/06 10:50:42;;;;;;;;;;;11.40;53.50;;;;;;5041384;28;20052;-66
2022/03/06 10:53:30;;;;;;;;;;;11.40;53.70;;;;;;5037902;28;20057;-66
2022/03/06 10:56:04;;;;;;;;;;;11.30;53.40;;;;;;5040850;28;19967;-68
2022/03/06 10:58:30;;;;;;;;;;;11.60;53.90;;;;;;5041708;28;19917;-66
2022/03/06 11:00:56;;;;;;;;;;;11.90;53.50;;;;;;5038245;28;20024;-65
2022/03/06 11:03:22;;;;;;;;;;;11.70;53.50;;;;;;5028326;28;19996;-65
2022/03/06 11:05:48;;;;;;;;;;;11.80;53.60;;;;;;5041834;28;19925;-65
2022/03/06 11:08:14;;;;;;;;;;;11.50;54.50;;;;;;5036520;28;19917;-66
2022/03/06 11:10:43;;;;;;;;;;;11.90;54.20;;;;;;5037233;28;20410;-67
2022/03/06 11:13:11;;;;;;;;;;;12.00;53.30;;;;;;5040210;28;19951;-68
2022/03/06 11:15:36;;;;;;;;;;;12.40;53.80;;;;;;5076092;28;20518;-66
2022/03/06 11:18:02;;;;;;;;;;;13.20;53.00;;;;;;5073704;28;20006;-67
2022/03/06 11:20:29;;;;;;;;;;;13.20;51.80;;;;;;5055348;28;19919;-74
2022/03/06 11:23:02;;;;;;;;;;;13.70;51.40;;;;;;5075475;28;19913;-64
2022/03/06 11:25:29;;;;;;;;;;;13.90;51.00;;;;;;5080043;28;19981;-63
2022/03/06 11:28:15;;;;;;;;;;;14.30;51.00;;;;;;5087728;28;19916;-64
2022/03/06 11:30:41;;;;;;;;;;;14.60;50.70;;;;;;5087906;28;19920;-64
2022/03/06 11:33:08;;;;;;;;;;;14.90;49.90;;;;;;5063208;28;20050;-63
2022/03/06 11:35:35;;;;;;;;;;;15.10;49.90;;;;;;5086757;28;19928;-65
2022/03/06 11:38:01;;;;;;;;;;;15.60;49.50;;;;;;5083990;28;20280;-65
2022/03/06 11:40:37;;;;;;;;;;;15.90;49.10;;;;;;5069560;28;20006;-63
2022/03/06 11:43:03;;;;;;;;;;;16.10;48.80;;;;;;5089569;28;20353;-63
2022/03/06 11:45:48;;;;;;;;;;;16.30;54.20;;;;;;5091057;28;19915;-64
2022/03/06 11:48:26;;;;;;;;;;;16.80;51.00;;;;;;5069480;28;20349;-63
2022/03/06 11:51:10;;;;;;;;;;;17.00;53.90;;;;;;5072365;28;19919;-64
2022/03/06 11:53:51;;;;;;;;;;;16.90;49.10;;;;;;5090504;28;19968;-63
2022/03/06 11:56:32;;;;;;;;;;;17.30;47.70;;;;;;5065848;28;20366;-65
2022/03/06 11:58:58;;;;;;;;;;;17.40;46.60;;;;;;5072406;28;20035;-64
2022/03/06 12:01:27;;;;;;;;;;;16.30;47.30;;;;;;5051851;28;19965;-64
2022/03/06 12:03:54;;;;;;;;;;;16.60;47.20;;;;;;5053653;28;20376;-68
2022/03/06 12:06:19;;;;;;;;;;;17.00;46.90;;;;;;5066017;28;19919;-74
2022/03/06 12:08:45;;;;;;;;;;;17.50;46.60;;;;;;5090336;28;19912;-63
2022/03/06 12:11:11;;;;;;;;;;;17.80;45.50;;;;;;5072506;28;19913;-64
2022/03/06 12:13:39;;;;;;;;;;;17.40;45.30;;;;;;5089556;28;19957;-63
2022/03/06 12:16:05;;;;;;;;;;;16.80;45.60;;;;;;5090437;28;19944;-63
2022/03/06 12:18:31;;;;;;;;;;;16.90;45.90;;;;;;5089667;28;19931;-65
2022/03/06 12:20:57;;;;;;;;;;;17.00;46.10;;;;;;5087013;28;20348;-66
2022/03/06 12:23:30;;;;;;;;;;;17.00;45.70;;;;;;5089603;28;20242;-65
2022/03/06 12:25:58;;;;;;;;;;;17.70;46.80;;;;;;5090292;28;19923;-64
2022/03/06 12:28:26;;;;;;;;;;;17.90;45.30;;;;;;5089859;28;19916;-65
2022/03/06 12:30:52;;;;;;;;;;;16.70;45.20;;;;;;5090869;28;19930;-64
2022/03/06 12:33:29;;;;;;;;;;;17.70;46.10;;;;;;5090466;28;20296;-65
2022/03/06 12:36:10;;;;;;;;;;;17.60;45.50;;;;;;5072479;28;20378;-64
2022/03/06 12:38:36;;;;;;;;;;;15.60;45.80;;;;;;5070296;28;19912;-66
2022/03/06 12:41:02;;;;;;;;;;;15.80;47.30;;;;;;5081271;28;19912;-64
2022/03/06 12:43:29;;;;;;;;;;;16.30;46.70;;;;;;5073589;28;19912;-65
2022/03/06 12:45:55;;;;;;;;;;;17.00;46.80;;;;;;5088517;28;19923;-66
2022/03/06 12:48:22;;;;;;;;;;;16.80;46.00;;;;;;5073707;28;19908;-65
2022/03/06 12:50:48;;;;;;;;;;;17.00;45.70;;;;;;5094120;28;20044;-67
2022/03/06 12:53:16;;;;;;;;;;;16.50;74.00;;;;;;5050764;28;19928;-68
2022/03/06 12:55:42;;;;;;;;;;;17.50;73.00;;;;;;5047716;28;20582;-66
2022/03/06 12:58:07;;;;;;;;;;;17.80;59.40;;;;;;5049272;28;20385;-67
2022/03/06 13:00:33;;;;;;;;;;;18.30;55.40;;;;;;5031159;28;20016;-69
2022/03/06 13:03:03;;;;;;;;;;;18.50;62.90;;;;;;5050217;28;19909;-67
2022/03/06 13:05:46;;;;;;;;;;;18.40;62.70;;;;;;5044238;28;19998;-66
2022/03/06 13:08:12;;;;;;;;;;;17.70;53.30;;;;;;5041311;28;20281;-67
2022/03/06 13:10:38;;;;;;;;;;;17.30;48.40;;;;;;5029882;28;20008;-67
2022/03/06 13:13:03;;;;;;;;;;;17.90;46.20;;;;;;5030691;28;20008;-65
2022/03/06 13:15:29;;;;;;;;;;;16.70;46.30;;;;;;5030200;28;20244;-66
2022/03/06 13:17:57;;;;;;;;;;;15.90;47.30;;;;;;5031282;28;20255;-66
2022/03/06 13:20:44;;;;;;;;;;;14.70;48.10;;;;;;5030643;28;19975;-72
2022/03/06 13:23:20;;;;;;;;;;;14.50;48.70;;;;;;5033768;28;19960;-66
2022/03/06 13:25:46;;;;;;;;;;;16.20;47.50;;;;;;5073413;28;19919;-66
2022/03/06 13:28:12;;;;;;;;;;;16.30;46.90;;;;;;5072681;28;19908;-65
2022/03/06 13:30:38;;;;;;;;;;;16.50;47.10;;;;;;5072703;28;19948;-66
2022/03/06 13:33:04;;;;;;;;;;;16.20;46.80;;;;;;5073488;28;19915;-65
2022/03/06 13:35:36;;;;;;;;;;;16.00;47.10;;;;;;5072351;28;19908;-66
2022/03/06 13:38:11;;;;;;;;;;;15.50;46.90;;;;;;5073913;28;19959;-66
2022/03/06 13:40:40;;;;;;;;;;;15.30;47.40;;;;;;5072625;28;19909;-65
2022/03/06 13:43:06;;;;;;;;;;;15.00;47.20;;;;;;5055279;28;19909;-66
2022/03/06 13:45:32;;;;;;;;;;;14.80;47.80;;;;;;5071460;28;19915;-66
2022/03/06 13:48:02;;;;;;;;;;;14.30;47.70;;;;;;5073704;28;20381;-65
2022/03/06 13:50:31;;;;;;;;;;;14.00;48.30;;;;;;5056583;28;19923;-64
2022/03/06 13:52:57;;;;;;;;;;;14.00;48.50;;;;;;5075298;28;19916;-66
2022/03/06 13:55:26;;;;;;;;;;;13.70;48.60;;;;;;5057004;28;19912;-66
2022/03/06 13:58:18;;;;;;;;;;;13.90;49.10;;;;;;5056767;28;19916;-68
2022/03/06 14:00:50;;;;;;;;;;;13.90;49.50;;;;;;5051629;28;19909;-67
2022/03/06 14:03:17;;;;;;;;;;;13.30;50.00;;;;;;5057091;28;19969;-66
2022/03/06 14:05:49;;;;;;;;;;;12.90;50.60;;;;;;5074677;28;19915;-66
2022/03/06 14:08:24;;;;;;;;;;;12.30;51.60;;;;;;5076380;28;19908;-66
2022/03/06 14:10:57;;;;;;;;;;;12.30;51.80;;;;;;5057104;28;20426;-65
2022/03/06 14:13:41;;;;;;;;;;;11.90;52.70;;;;;;5075007;28;19944;-68
2022/03/06 14:16:06;;;;;;;;;;;12.10;52.90;;;;;;5056827;28;19916;-67
2022/03/06 14:18:33;;;;;;;;;;;12.10;52.60;;;;;;5074417;28;19908;-65
2022/03/06 14:20:59;;;;;;;;;;;11.90;52.80;;;;;;5056939;28;19908;-67
2022/03/06 14:23:25;;;;;;;;;;;11.80;52.90;;;;;;5074359;28;20430;-66